createdAt,value
2018-12-16T00:01:20.288Z,203.90
2018-12-16T00:03:27.082Z,212.50
2018-12-16T00:05:34.143Z,205.37
2018-12-16T00:07:41.130Z,197.00
2018-12-16T00:09:48.012Z,198.87
2018-12-16T00:11:55.771Z,168.10
2018-12-16T00:14:02.622Z,177.27
2018-12-16T00:16:09.562Z,165.60
2018-12-16T00:18:16.210Z,159.73
2018-12-16T00:20:23.049Z,195.97
2018-12-16T00:22:30.216Z,213.63
2018-12-16T00:24:36.906Z,228.17
2018-12-16T00:26:53.842Z,259.55
2018-12-16T00:29:00.478Z,268.40
2018-12-16T00:31:07.290Z,256.57
2018-12-16T00:33:14.480Z,258.43
2018-12-16T00:35:21.164Z,229.67
2018-12-16T00:37:28.046Z,224.00
2018-12-16T00:39:34.894Z,235.87
2018-12-16T00:41:41.757Z,235.40
2018-12-16T00:43:48.580Z,221.33
2018-12-16T00:45:55.634Z,243.43
2018-12-16T00:48:02.218Z,247.50
2018-12-16T00:50:09.534Z,265.43
2018-12-16T00:52:16.358Z,242.50
2018-12-16T00:54:23.365Z,249.13
2018-12-16T00:56:30.214Z,244.97
2018-12-16T00:58:37.313Z,232.10
2018-12-16T01:00:44.006Z,240.70
2018-12-16T01:02:50.873Z,247.70
2018-12-16T01:04:57.764Z,226.23
2018-12-16T01:07:04.585Z,233.40
2018-12-16T01:09:11.172Z,222.20
2018-12-16T01:11:17.902Z,221.37
2018-12-16T01:13:25.172Z,218.50
2018-12-16T01:15:32.076Z,195.80
2018-12-16T01:17:39.022Z,199.27
2018-12-16T01:19:45.745Z,211.23
2018-12-16T01:21:52.442Z,203.60
2018-12-16T01:23:59.357Z,200.60
2018-12-16T01:26:06.248Z,207.43
2018-12-16T01:28:13.711Z,207.60
2018-12-16T01:30:20.837Z,185.13
2018-12-16T01:32:27.325Z,216.27
2018-12-16T01:34:34.088Z,224.77
2018-12-16T01:36:41.069Z,220.43
2018-12-16T01:38:47.805Z,200.73
2018-12-16T01:40:54.505Z,221.37
2018-12-16T01:43:01.487Z,235.67
2018-12-16T01:45:08.226Z,227.03
2018-12-16T01:47:15.107Z,209.57
2018-12-16T01:49:22.090Z,212.60
2018-12-16T01:51:28.698Z,238.57
2018-12-16T01:53:35.501Z,230.07
2018-12-16T01:55:42.359Z,237.40
2018-12-16T01:57:49.209Z,241.87
2018-12-16T01:59:56.033Z,241.87
2018-12-16T02:02:02.862Z,243.70
2018-12-16T02:04:10.515Z,252.43
2018-12-16T02:06:17.199Z,248.83
2018-12-16T02:08:23.878Z,212.00
2018-12-16T02:10:30.938Z,213.03
2018-12-16T02:12:37.758Z,218.50
2018-12-16T02:14:44.642Z,198.80
2018-12-16T02:16:51.768Z,207.93
2018-12-16T02:18:58.553Z,190.57
2018-12-16T02:21:05.270Z,197.27
2018-12-16T02:23:11.994Z,221.17
2018-12-16T02:25:18.849Z,202.37
2018-12-16T02:27:25.318Z,202.23
2018-12-16T02:29:32.086Z,212.03
2018-12-16T02:31:39.337Z,210.30
2018-12-16T02:33:46.187Z,200.57
2018-12-16T02:35:53.038Z,221.13
2018-12-16T02:38:00.005Z,223.27
2018-12-16T02:40:06.915Z,214.37
2018-12-16T02:42:14.178Z,218.17
2018-12-16T02:44:21.281Z,219.73
2018-12-16T02:46:28.134Z,220.37
2018-12-16T02:48:35.379Z,239.90
2018-12-16T02:50:42.209Z,238.40
2018-12-16T02:52:48.923Z,229.87
2018-12-16T02:54:55.912Z,234.20
2018-12-16T02:57:02.745Z,244.00
2018-12-16T02:59:09.701Z,246.53
2018-12-16T03:01:16.514Z,248.27
2018-12-16T03:03:23.471Z,249.53
2018-12-16T03:05:30.396Z,247.73
2018-12-16T03:07:37.329Z,229.57
2018-12-16T03:09:44.112Z,235.67
2018-12-16T03:11:51.862Z,218.70
2018-12-16T03:13:58.587Z,227.57
2018-12-16T03:16:05.546Z,199.47
2018-12-16T03:18:12.366Z,216.57
2018-12-16T03:20:19.092Z,191.73
2018-12-16T03:22:25.839Z,203.60
2018-12-16T03:24:32.564Z,186.13
2018-12-16T03:26:39.414Z,189.70
2018-12-16T03:28:46.023Z,224.40
2018-12-16T03:30:53.103Z,234.47
2018-12-16T03:32:59.903Z,217.03
2018-12-16T03:35:07.040Z,217.83
2018-12-16T03:37:13.932Z,215.77
2018-12-16T03:39:20.708Z,227.27
2018-12-16T03:41:27.597Z,224.90
2018-12-16T03:43:34.439Z,229.93
2018-12-16T03:45:41.433Z,232.57
2018-12-16T03:47:48.256Z,236.23
2018-12-16T03:49:55.473Z,244.20
2018-12-16T03:52:02.402Z,248.93
2018-12-16T03:54:09.288Z,242.70
2018-12-16T03:56:16.875Z,252.73
2018-12-16T03:58:23.920Z,243.67
2018-12-16T04:00:30.770Z,245.53
2018-12-16T04:02:37.561Z,247.63
2018-12-16T04:04:44.313Z,263.20
2018-12-16T04:06:50.984Z,258.60
2018-12-16T04:08:57.910Z,263.03
2018-12-16T04:11:05.131Z,257.33
2018-12-16T04:13:11.961Z,265.47
2018-12-16T04:15:18.825Z,271.73
2018-12-16T04:17:25.704Z,240.63
2018-12-16T04:19:32.357Z,252.27
2018-12-16T04:21:39.194Z,225.97
2018-12-16T04:23:46.344Z,224.63
2018-12-16T04:25:53.025Z,226.37
2018-12-16T04:27:59.849Z,245.07
2018-12-16T04:30:07.516Z,205.37
2018-12-16T04:32:14.562Z,222.73
2018-12-16T04:34:21.238Z,231.23
2018-12-16T04:36:28.148Z,238.70
2018-12-16T04:38:34.991Z,229.53
2018-12-16T04:40:41.712Z,243.07
2018-12-16T04:42:48.472Z,238.10
2018-12-16T04:44:55.581Z,246.93
2018-12-16T04:47:02.203Z,240.07
2018-12-16T04:49:09.163Z,233.03
2018-12-16T04:51:16.059Z,237.40
2018-12-16T04:53:22.910Z,244.07
2018-12-16T04:55:29.927Z,260.23
2018-12-16T04:57:36.602Z,248.63
2018-12-16T04:59:43.689Z,237.93
2018-12-16T05:01:50.469Z,256.73
2018-12-16T05:03:57.422Z,265.50
2018-12-16T05:06:04.369Z,261.27
2018-12-16T05:08:11.471Z,267.40
2018-12-16T05:10:29.214Z,265.47
2018-12-16T05:12:36.110Z,277.50
2018-12-16T05:14:43.167Z,276.97
2018-12-16T05:16:49.936Z,273.03
2018-12-16T05:18:56.848Z,241.20
2018-12-16T05:21:03.571Z,249.63
2018-12-16T05:23:10.289Z,246.77
2018-12-16T05:25:17.182Z,238.33
2018-12-16T05:27:23.927Z,241.67
2018-12-16T05:29:30.595Z,234.43
2018-12-16T05:31:37.562Z,233.97
2018-12-16T05:33:44.358Z,212.87
2018-12-16T05:35:51.002Z,210.23
2018-12-16T05:37:57.967Z,176.73
2018-12-16T05:40:04.821Z,174.13
2018-12-16T05:42:11.809Z,158.30
2018-12-16T05:44:18.692Z,167.57
2018-12-16T05:46:25.434Z,179.17
2018-12-16T05:48:32.432Z,185.87
2018-12-16T05:50:39.381Z,201.83
2018-12-16T05:52:46.148Z,201.43
2018-12-16T05:54:52.623Z,213.87
2018-12-16T05:56:59.634Z,214.63
2018-12-16T05:59:06.492Z,223.90
2018-12-16T06:01:13.233Z,233.43
2018-12-16T06:03:20.038Z,239.07
2018-12-16T06:05:27.185Z,238.27
2018-12-16T06:07:34.011Z,250.80
2018-12-16T06:09:41.269Z,245.33
2018-12-16T06:11:48.493Z,251.77
2018-12-16T06:13:55.701Z,241.27
2018-12-16T06:16:02.726Z,244.90
2018-12-16T06:18:09.809Z,245.17
2018-12-16T06:20:16.698Z,246.40
2018-12-16T06:22:23.509Z,259.73
2018-12-16T06:24:30.542Z,262.40
2018-12-16T06:26:37.299Z,251.53
2018-12-16T06:28:43.991Z,229.50
2018-12-16T06:30:51.097Z,227.60
2018-12-16T06:32:57.826Z,213.47
2018-12-16T06:35:04.631Z,198.43
2018-12-16T06:37:11.512Z,183.23
2018-12-16T06:39:18.153Z,193.03
2018-12-16T06:41:25.248Z,163.47
2018-12-16T06:43:32.294Z,161.33
2018-12-16T06:45:39.018Z,169.10
2018-12-16T06:47:45.742Z,232.00
2018-12-16T06:49:52.483Z,204.00
2018-12-16T06:51:59.302Z,203.40
2018-12-16T06:54:06.151Z,224.37
2018-12-16T06:56:13.283Z,226.87
2018-12-16T06:58:20.568Z,233.00
2018-12-16T07:00:27.580Z,230.63
2018-12-16T07:02:34.254Z,237.03
2018-12-16T07:04:41.166Z,244.93
2018-12-16T07:06:48.361Z,233.97
2018-12-16T07:08:55.287Z,253.00
2018-12-16T07:11:02.430Z,253.17
2018-12-16T07:13:09.263Z,260.97
2018-12-16T07:15:16.141Z,257.97
2018-12-16T07:17:23.305Z,264.73
2018-12-16T07:19:30.102Z,250.27
2018-12-16T07:21:37.036Z,230.40
2018-12-16T07:23:43.808Z,206.07
2018-12-16T07:25:50.705Z,200.40
2018-12-16T07:27:57.593Z,188.30
2018-12-16T07:30:04.614Z,176.13
2018-12-16T07:32:11.438Z,176.70
2018-12-16T07:34:18.295Z,191.00
2018-12-16T07:36:25.106Z,198.73
2018-12-16T07:38:31.759Z,222.07
2018-12-16T07:40:38.698Z,244.70
2018-12-16T07:42:46.067Z,219.90
2018-12-16T07:44:53.403Z,222.53
2018-12-16T07:47:00.586Z,241.57
2018-12-16T07:49:07.171Z,241.80
2018-12-16T07:51:14.112Z,232.80
2018-12-16T07:53:20.875Z,234.93
2018-12-16T07:55:27.532Z,230.97
2018-12-16T07:57:34.525Z,250.00
2018-12-16T07:59:41.203Z,252.80
2018-12-16T08:01:48.503Z,259.60
2018-12-16T08:03:55.251Z,249.30
2018-12-16T08:06:01.962Z,250.93
2018-12-16T08:08:08.894Z,250.70
2018-12-16T08:10:16.034Z,243.07
2018-12-16T08:12:22.957Z,237.43
2018-12-16T08:14:29.741Z,230.07
2018-12-16T08:16:36.958Z,215.47
2018-12-16T08:18:44.254Z,200.03
2018-12-16T08:20:51.211Z,194.77
2018-12-16T08:22:58.719Z,183.80
2018-12-16T08:25:05.841Z,177.33
2018-12-16T08:27:12.747Z,173.33
2018-12-16T08:29:19.529Z,171.53
2018-12-16T08:31:27.065Z,160.37
2018-12-16T08:33:33.881Z,192.97
2018-12-16T08:35:40.857Z,192.13
2018-12-16T08:37:47.522Z,202.37
2018-12-16T08:39:54.320Z,218.10
2018-12-16T08:42:01.193Z,224.37
2018-12-16T08:44:08.027Z,233.53
2018-12-16T08:46:15.003Z,238.53
2018-12-16T08:48:22.007Z,224.83
2018-12-16T08:50:28.974Z,231.27
2018-12-16T08:52:35.944Z,245.27
2018-12-16T08:54:43.626Z,238.87
2018-12-16T08:56:50.713Z,244.83
2018-12-16T08:58:57.522Z,254.87
2018-12-16T09:01:04.346Z,242.77
2018-12-16T09:03:12.297Z,244.60
2018-12-16T09:05:19.145Z,254.83
2018-12-16T09:07:25.863Z,252.63
2018-12-16T09:09:32.951Z,256.83
2018-12-16T09:11:39.748Z,248.33
2018-12-16T09:13:47.427Z,251.33
2018-12-16T09:15:54.427Z,243.40
2018-12-16T09:18:00.983Z,225.67
2018-12-16T09:20:07.929Z,220.37
2018-12-16T09:22:14.784Z,229.07
2018-12-16T09:24:22.217Z,211.63
2018-12-16T09:26:29.060Z,197.70
2018-12-16T09:28:36.281Z,203.23
2018-12-16T09:30:43.241Z,202.50
2018-12-16T09:32:50.106Z,219.63
2018-12-16T09:34:56.850Z,204.23
2018-12-16T09:37:03.563Z,195.17
2018-12-16T09:39:10.984Z,190.50
2018-12-16T09:41:17.786Z,172.60
2018-12-16T09:43:24.506Z,166.07
2018-12-16T09:45:31.403Z,163.90
2018-12-16T09:47:38.290Z,154.43
2018-12-16T09:49:45.206Z,149.63
2018-12-16T09:51:52.229Z,147.67
2018-12-16T09:53:59.334Z,140.90
2018-12-16T09:56:06.090Z,129.07
2018-12-16T09:58:13.126Z,162.40
2018-12-16T10:00:19.909Z,188.10
2018-12-16T10:02:26.462Z,157.37
2018-12-16T10:04:33.662Z,172.47
2018-12-16T10:06:40.553Z,180.00
2018-12-16T10:08:47.304Z,187.23
2018-12-16T10:10:54.110Z,199.90
2018-12-16T10:13:00.870Z,206.23
2018-12-16T10:15:08.522Z,209.83
2018-12-16T10:17:15.294Z,203.87
2018-12-16T10:19:22.054Z,207.73
2018-12-16T10:21:28.798Z,220.57
2018-12-16T10:23:35.674Z,220.37
2018-12-16T10:25:43.134Z,219.07
2018-12-16T10:27:49.830Z,222.87
2018-12-16T10:29:56.556Z,235.80
2018-12-16T10:32:03.461Z,236.27
2018-12-16T10:34:10.395Z,234.67
2018-12-16T10:36:17.330Z,244.43
2018-12-16T10:38:24.411Z,231.70
2018-12-16T10:40:31.206Z,211.00
2018-12-16T10:42:37.942Z,199.57
2018-12-16T10:44:44.522Z,180.30
2018-12-16T10:46:51.963Z,177.73
2018-12-16T10:49:04.690Z,175.50
2018-12-16T10:51:08.049Z,160.50
2018-12-16T10:53:15.169Z,161.33
2018-12-16T10:55:21.818Z,153.37
2018-12-16T10:57:28.485Z,155.17
2018-12-16T10:59:35.359Z,191.83
2018-12-16T11:01:42.450Z,229.30
2018-12-16T11:03:49.367Z,219.47
2018-12-16T11:05:56.666Z,209.83
2018-12-16T11:08:03.279Z,200.50
2018-12-16T11:10:10.007Z,196.13
2018-12-16T11:12:17.596Z,195.93
2018-12-16T11:14:25.467Z,210.30
2018-12-16T11:16:32.282Z,204.73
2018-12-16T11:18:39.419Z,222.87
2018-12-16T11:20:46.221Z,209.87
2018-12-16T11:22:53.215Z,226.93
2018-12-16T11:25:05.619Z,227.43
2018-12-16T11:27:10.662Z,231.07
2018-12-16T11:29:17.394Z,206.20
2018-12-16T11:31:24.655Z,207.47
2018-12-16T11:33:31.882Z,187.23
2018-12-16T11:35:38.705Z,166.20
2018-12-16T11:37:45.602Z,169.83
2018-12-16T11:39:53.547Z,157.57
2018-12-16T11:42:00.770Z,150.07
2018-12-16T11:44:08.284Z,148.93
2018-12-16T11:46:15.355Z,141.87
2018-12-16T11:48:22.133Z,140.67
2018-12-16T11:50:29.852Z,176.53
2018-12-16T11:52:36.707Z,203.67
2018-12-16T11:54:43.926Z,211.40
2018-12-16T11:56:51.074Z,218.93
2018-12-16T11:58:57.830Z,214.03
2018-12-16T12:01:04.982Z,215.50
2018-12-16T12:03:11.910Z,216.73
2018-12-16T12:05:18.729Z,214.70
2018-12-16T12:07:25.666Z,210.00
2018-12-16T12:09:32.494Z,218.47
2018-12-16T12:11:39.635Z,210.73
2018-12-16T12:13:46.268Z,218.57
2018-12-16T12:15:53.454Z,221.43
2018-12-16T12:18:00.722Z,223.10
2018-12-16T12:20:07.775Z,231.77
2018-12-16T12:22:14.628Z,217.37
2018-12-16T12:24:21.533Z,219.47
2018-12-16T12:26:28.529Z,239.83
2018-12-16T12:28:35.629Z,220.27
2018-12-16T12:30:42.575Z,218.53
2018-12-16T12:32:49.344Z,188.00
2018-12-16T12:34:56.265Z,187.00
2018-12-16T12:37:03.168Z,170.10
2018-12-16T12:39:09.863Z,164.93
2018-12-16T12:41:16.701Z,156.43
2018-12-16T12:43:25.001Z,152.77
2018-12-16T12:45:31.990Z,149.20
2018-12-16T12:47:38.733Z,147.80
2018-12-16T12:49:45.554Z,145.30
2018-12-16T12:51:52.612Z,138.93
2018-12-16T12:53:59.415Z,140.43
2018-12-16T12:56:06.629Z,145.27
2018-12-16T12:58:13.499Z,142.43
2018-12-16T13:00:20.157Z,142.07
2018-12-16T13:02:26.850Z,134.97
2018-12-16T13:04:33.578Z,134.07
2018-12-16T13:06:40.289Z,124.60
2018-12-16T13:08:47.070Z,119.90
2018-12-16T13:10:53.887Z,118.80
2018-12-16T13:13:00.997Z,114.47
2018-12-16T13:15:07.941Z,122.47
2018-12-16T13:17:14.806Z,119.47
2018-12-16T13:19:21.382Z,121.20
2018-12-16T13:21:27.992Z,117.23
2018-12-16T13:23:35.091Z,121.93
2018-12-16T13:25:51.575Z,119.37
2018-12-16T13:27:58.409Z,117.73
2018-12-16T13:30:05.341Z,110.97
2018-12-16T13:32:12.205Z,112.63
2018-12-16T13:34:19.288Z,109.43
2018-12-16T13:36:26.270Z,115.27
2018-12-16T13:38:33.159Z,108.47
2018-12-16T13:40:39.941Z,112.87
2018-12-16T13:42:46.956Z,117.63
2018-12-16T13:44:53.435Z,109.13
2018-12-16T13:47:00.967Z,103.90
2018-12-16T13:49:07.721Z,141.30
2018-12-16T13:51:14.868Z,171.00
2018-12-16T13:53:21.512Z,172.97
2018-12-16T13:55:28.395Z,174.13
2018-12-16T13:57:36.172Z,156.37
2018-12-16T13:59:43.159Z,163.90
2018-12-16T14:01:50.002Z,156.93
2018-12-16T14:03:56.922Z,157.43
2018-12-16T14:06:04.334Z,147.50
2018-12-16T14:08:11.314Z,134.30
2018-12-16T14:10:18.286Z,131.50
2018-12-16T14:12:25.298Z,131.30
2018-12-16T14:14:32.496Z,117.37
2018-12-16T14:16:39.282Z,123.50
2018-12-16T14:18:46.182Z,117.17
2018-12-16T14:20:53.693Z,171.90
2018-12-16T14:23:00.681Z,196.73
2018-12-16T14:25:07.798Z,190.73
2018-12-16T14:27:14.609Z,191.47
2018-12-16T14:29:21.527Z,146.23
2018-12-16T14:31:28.286Z,164.97
2018-12-16T14:33:36.894Z,164.73
2018-12-16T14:35:44.983Z,174.77
2018-12-16T14:37:51.905Z,186.17
2018-12-16T14:39:59.207Z,191.80
2018-12-16T14:42:05.813Z,206.57
2018-12-16T14:44:12.802Z,180.37
2018-12-16T14:46:19.478Z,168.87
2018-12-16T14:48:26.074Z,144.47
2018-12-16T14:50:32.802Z,136.70
2018-12-16T14:52:39.900Z,132.40
2018-12-16T14:54:46.666Z,126.37
2018-12-16T14:56:53.745Z,129.63
2018-12-16T14:59:00.657Z,125.93
2018-12-16T15:01:07.656Z,129.73
2018-12-16T15:03:14.638Z,145.87
2018-12-16T15:05:21.492Z,154.37
2018-12-16T15:07:28.077Z,167.53
2018-12-16T15:09:35.018Z,144.67
2018-12-16T15:11:41.802Z,158.03
2018-12-16T15:13:49.054Z,177.93
2018-12-16T15:15:56.010Z,179.77
2018-12-16T15:18:02.886Z,189.50
2018-12-16T15:20:10.436Z,187.37
2018-12-16T15:22:17.135Z,191.50
2018-12-16T15:24:24.539Z,194.27
2018-12-16T15:26:31.227Z,196.63
2018-12-16T15:28:37.962Z,206.07
2018-12-16T15:30:44.800Z,202.37
2018-12-16T15:32:51.948Z,195.27
2018-12-16T15:34:58.566Z,191.60
2018-12-16T15:37:05.450Z,182.70
2018-12-16T15:39:12.379Z,192.40
2018-12-16T15:41:19.511Z,199.53
2018-12-16T15:43:26.337Z,193.63
2018-12-16T15:45:33.046Z,192.63
2018-12-16T15:47:40.686Z,158.83
2018-12-16T15:49:47.418Z,160.47
2018-12-16T15:51:54.173Z,142.03
2018-12-16T15:54:00.902Z,143.90
2018-12-16T15:56:09.481Z,136.33
2018-12-16T15:58:16.710Z,129.70
2018-12-16T16:00:26.881Z,158.57
2018-12-16T16:02:33.786Z,177.20
2018-12-16T16:04:40.903Z,190.83
2018-12-16T16:06:47.940Z,199.40
2018-12-16T16:08:54.904Z,180.50
2018-12-16T16:11:02.805Z,180.60
2018-12-16T16:13:10.247Z,211.52
2018-12-16T16:15:17.425Z,187.77
2018-12-16T16:17:24.442Z,169.97
2018-12-16T16:19:31.673Z,185.80
2018-12-16T16:21:39.186Z,158.33
2018-12-16T16:23:46.239Z,175.97
2018-12-16T16:25:53.013Z,189.10
2018-12-16T16:27:59.782Z,165.57
2018-12-16T16:30:07.311Z,168.70
2018-12-16T16:32:14.722Z,202.73
2018-12-16T16:34:21.479Z,163.80
2018-12-16T16:36:28.424Z,165.30
2018-12-16T16:38:35.755Z,172.68
2018-12-16T16:40:42.647Z,190.68
2018-12-16T16:42:50.169Z,216.30
2018-12-16T16:44:56.875Z,155.57
2018-12-16T16:47:04.179Z,171.67
2018-12-16T16:49:11.109Z,184.77
2018-12-16T16:51:18.299Z,197.37
2018-12-16T16:53:25.162Z,186.37
2018-12-16T16:55:32.190Z,174.10
2018-12-16T16:57:38.874Z,186.33
2018-12-16T16:59:45.880Z,177.23
2018-12-16T17:01:52.694Z,200.43
2018-12-16T17:03:59.517Z,155.53
2018-12-16T17:06:06.321Z,161.57
2018-12-16T17:08:13.558Z,183.03
2018-12-16T17:10:20.545Z,189.73
2018-12-16T17:12:27.580Z,158.90
2018-12-16T17:14:34.608Z,152.97
2018-12-16T17:16:41.613Z,143.90
2018-12-16T17:18:48.986Z,127.80
2018-12-16T17:20:56.042Z,122.60
2018-12-16T17:23:02.790Z,135.67
2018-12-16T17:25:09.799Z,116.70
2018-12-16T17:27:16.677Z,194.77
2018-12-16T17:29:23.358Z,178.17
2018-12-16T17:31:30.202Z,181.60
2018-12-16T17:33:36.971Z,149.93
2018-12-16T17:35:43.846Z,190.37
2018-12-16T17:37:50.542Z,192.23
2018-12-16T17:39:57.350Z,164.53
2018-12-16T17:42:04.642Z,200.40
2018-12-16T17:44:11.909Z,185.17
2018-12-16T17:46:19.069Z,152.93
2018-12-16T17:48:26.193Z,149.30
2018-12-16T17:50:32.995Z,144.83
2018-12-16T17:52:40.059Z,133.27
2018-12-16T17:54:46.677Z,145.40
2018-12-16T17:56:53.644Z,157.00
2018-12-16T17:59:00.438Z,153.43
2018-12-16T18:01:07.301Z,147.37
2018-12-16T18:03:15.908Z,129.63
2018-12-16T18:05:24.838Z,121.90
2018-12-16T18:07:32.893Z,135.93
2018-12-16T18:09:44.783Z,122.53
2018-12-16T18:11:55.034Z,123.33
2018-12-16T18:14:03.313Z,170.90
2018-12-16T18:16:10.664Z,168.90
2018-12-16T18:18:18.090Z,174.40
2018-12-16T18:20:25.443Z,173.93
2018-12-16T18:22:32.183Z,171.37
2018-12-16T18:24:39.088Z,168.47
2018-12-16T18:26:46.313Z,169.60
2018-12-16T18:28:52.934Z,172.87
2018-12-16T18:30:59.696Z,182.23
2018-12-16T18:33:07.462Z,176.90
2018-12-16T18:35:14.756Z,169.20
2018-12-16T18:37:21.501Z,192.63
2018-12-16T18:39:28.272Z,182.33
2018-12-16T18:41:35.433Z,170.67
2018-12-16T18:43:42.475Z,172.73
2018-12-16T18:45:49.298Z,184.53
2018-12-16T18:47:56.058Z,179.17
2018-12-16T18:50:02.809Z,196.47
2018-12-16T18:52:10.295Z,182.83
2018-12-16T18:54:17.432Z,194.00
2018-12-16T18:56:24.522Z,168.90
2018-12-16T18:58:31.442Z,199.87
2018-12-16T19:00:38.334Z,198.17
2018-12-16T19:02:45.263Z,189.73
2018-12-16T19:04:52.507Z,186.57
2018-12-16T19:06:59.239Z,184.00
2018-12-16T19:09:06.599Z,206.77
2018-12-16T19:11:13.383Z,185.13
2018-12-16T19:13:21.823Z,206.83
2018-12-16T19:15:29.294Z,203.77
2018-12-16T19:17:36.306Z,191.30
2018-12-16T19:19:43.097Z,198.30
2018-12-16T19:21:49.714Z,203.67
2018-12-16T19:23:56.794Z,213.17
2018-12-16T19:26:03.835Z,213.20
2018-12-16T19:28:11.088Z,212.20
2018-12-16T19:30:18.389Z,221.67
2018-12-16T19:32:25.187Z,209.03
2018-12-16T19:34:32.206Z,216.73
2018-12-16T19:36:38.882Z,228.40
2018-12-16T19:38:46.837Z,198.70
2018-12-16T19:40:54.329Z,193.03
2018-12-16T19:43:01.263Z,220.50
2018-12-16T19:45:08.735Z,201.33
2018-12-16T19:47:15.619Z,212.67
2018-12-16T19:49:22.460Z,210.93
2018-12-16T19:51:29.270Z,202.67
2018-12-16T19:53:36.322Z,216.40
2018-12-16T19:55:43.392Z,232.00
2018-12-16T19:57:50.245Z,218.00
2018-12-16T19:59:57.262Z,213.93
2018-12-16T20:02:04.162Z,214.07
2018-12-16T20:04:15.717Z,220.33
2018-12-16T20:06:27.192Z,225.93
2018-12-16T20:08:33.913Z,227.47
2018-12-16T20:10:40.723Z,226.97
2018-12-16T20:12:47.701Z,230.47
2018-12-16T20:14:54.281Z,225.07
2018-12-16T20:17:01.037Z,235.90
2018-12-16T20:19:08.116Z,237.13
2018-12-16T20:21:15.325Z,241.03
2018-12-16T20:23:21.945Z,243.20
2018-12-16T20:25:28.741Z,238.67
2018-12-16T20:27:35.706Z,244.60
2018-12-16T20:29:42.527Z,233.57
2018-12-16T20:31:49.630Z,242.97
2018-12-16T20:33:56.442Z,256.37
2018-12-16T20:36:03.154Z,264.43
2018-12-16T20:38:10.716Z,280.03
2018-12-16T20:40:17.830Z,266.13
2018-12-16T20:42:24.893Z,282.40
2018-12-16T20:44:32.061Z,259.40
2018-12-16T20:46:39.364Z,267.13
2018-12-16T20:48:46.331Z,272.63
2018-12-16T20:50:53.439Z,252.57
2018-12-16T20:53:00.230Z,252.13
2018-12-16T20:55:07.618Z,273.53
2018-12-16T20:57:18.851Z,282.03
2018-12-16T20:59:23.626Z,268.70
2018-12-16T21:01:30.537Z,283.77
2018-12-16T21:03:37.485Z,285.00
2018-12-16T21:05:44.326Z,283.43
2018-12-16T21:07:51.265Z,291.30
2018-12-16T21:09:58.078Z,282.87
2018-12-16T21:12:07.184Z,286.40
2018-12-16T21:14:20.245Z,280.93
2018-12-16T21:16:31.494Z,281.57
2018-12-16T21:18:38.554Z,261.23
2018-12-16T21:20:45.938Z,297.53
2018-12-16T21:22:52.901Z,284.83
2018-12-16T21:24:59.830Z,281.03
2018-12-16T21:27:07.073Z,272.43
2018-12-16T21:29:14.004Z,278.70
2018-12-16T21:31:20.768Z,285.93
2018-12-16T21:33:27.642Z,285.07
2018-12-16T21:35:34.598Z,283.87
2018-12-16T21:37:41.668Z,275.83
2018-12-16T21:39:48.510Z,280.63
2018-12-16T21:41:55.268Z,269.87
2018-12-16T21:44:02.255Z,284.87
2018-12-16T21:46:09.268Z,281.60
2018-12-16T21:48:17.073Z,303.93
2018-12-16T21:50:23.974Z,287.33
2018-12-16T21:52:30.535Z,285.47
2018-12-16T21:54:37.442Z,296.47
2018-12-16T21:56:44.435Z,296.27
2018-12-16T21:58:51.499Z,289.47
2018-12-16T22:00:58.507Z,283.07
2018-12-16T22:03:05.116Z,291.77
2018-12-16T22:05:13.806Z,290.80
2018-12-16T22:07:20.750Z,290.90
2018-12-16T22:09:27.802Z,294.00
2018-12-16T22:11:34.964Z,298.27
2018-12-16T22:13:41.757Z,296.57
2018-12-16T22:15:48.840Z,292.90
2018-12-16T22:17:55.682Z,297.20
2018-12-16T22:20:02.655Z,286.03
2018-12-16T22:22:09.494Z,286.47
2018-12-16T22:24:16.450Z,291.87
2018-12-16T22:26:23.302Z,279.87
2018-12-16T22:28:30.011Z,283.60
2018-12-16T22:30:36.889Z,278.03
2018-12-16T22:32:43.808Z,285.63
2018-12-16T22:34:50.619Z,288.63
2018-12-16T22:36:57.493Z,291.73
2018-12-16T22:39:04.902Z,290.90
2018-12-16T22:41:11.618Z,283.77
2018-12-16T22:43:18.423Z,290.27
2018-12-16T22:45:25.052Z,300.43
2018-12-16T22:47:31.895Z,284.50
2018-12-16T22:49:39.557Z,289.40
2018-12-16T22:51:46.208Z,291.97
2018-12-16T22:53:53.037Z,296.13
2018-12-16T22:55:59.825Z,283.30
2018-12-16T22:58:06.920Z,301.43
2018-12-16T23:00:17.980Z,288.43
2018-12-16T23:02:24.678Z,289.33
2018-12-16T23:04:32.257Z,295.77
2018-12-16T23:06:39.065Z,288.40
2018-12-16T23:08:45.878Z,300.73
2018-12-16T23:10:52.808Z,296.13
2018-12-16T23:12:59.481Z,302.73
2018-12-16T23:15:06.395Z,307.73
2018-12-16T23:17:13.158Z,296.27
2018-12-16T23:19:20.134Z,292.93
2018-12-16T23:21:27.270Z,315.57
2018-12-16T23:23:34.409Z,299.50
2018-12-16T23:25:41.202Z,292.63
2018-12-16T23:27:53.997Z,301.67
2018-12-16T23:29:56.871Z,291.60
2018-12-16T23:32:03.693Z,298.80
2018-12-16T23:34:10.690Z,301.60
2018-12-16T23:36:17.414Z,307.00
2018-12-16T23:38:24.163Z,294.30
2018-12-16T23:40:30.821Z,304.77
2018-12-16T23:42:37.482Z,309.00
2018-12-16T23:44:44.932Z,290.83
2018-12-16T23:46:51.801Z,306.20
2018-12-16T23:48:58.670Z,303.30
2018-12-16T23:51:05.659Z,299.83
2018-12-16T23:53:12.254Z,314.33
2018-12-16T23:55:19.026Z,299.73
2018-12-16T23:57:25.808Z,299.67
2018-12-16T23:59:32.749Z,296.67
